Time;durP1;ratioP1;P1;durP2;ratioP2;P2;SDS_P1;SDS_P2;PMS_P1;PMS_P2;Temp;Humidity;BMP_temperature;BMP_pressure;BME280_temperature;BME280_humidity;BME280_pressure;Samples;Min_cycle;Max_cycle;Signal;HPM_P1;HPM_P2
2024/02/17 00:00:22;;;;;;;1.87;0.70;;;11.30;99.90;;;;;;4958257;29;20481;-82
2024/02/17 00:02:49;;;;;;;3.27;1.17;;;11.30;99.90;;;;;;4957818;28;20557;-82
2024/02/17 00:05:17;;;;;;;2.30;1.57;;;11.30;99.90;;;;;;4957833;29;20450;-82
2024/02/17 00:07:43;;;;;;;1.20;1.10;;;11.30;99.90;;;;;;4958113;28;20871;-82
2024/02/17 00:10:10;;;;;;;1.67;1.57;;;11.30;99.90;;;;;;4957385;29;20474;-82
2024/02/17 00:12:37;;;;;;;1.20;1.20;;;11.30;99.90;;;;;;4958021;29;20411;-82
2024/02/17 00:15:05;;;;;;;1.60;1.13;;;11.30;99.90;;;;;;4958402;29;20541;-83
2024/02/17 00:17:32;;;;;;;5.63;1.50;;;11.20;99.90;;;;;;4958555;29;20482;-82
2024/02/17 00:19:59;;;;;;;2.03;1.20;;;11.20;99.90;;;;;;4958680;29;20466;-82
2024/02/17 00:22:27;;;;;;;1.60;1.30;;;11.30;99.90;;;;;;4958541;29;20443;-83
2024/02/17 00:24:53;;;;;;;6.10;1.90;;;11.20;99.90;;;;;;4958905;29;20442;-83
2024/02/17 00:27:21;;;;;;;2.20;1.50;;;11.20;99.90;;;;;;4958869;29;20453;-83
2024/02/17 00:29:47;;;;;;;1.20;1.20;;;11.20;99.90;;;;;;4957956;28;20470;-82
2024/02/17 00:32:14;;;;;;;1.03;0.93;;;11.20;99.90;;;;;;4958105;29;20485;-82
2024/02/17 00:34:41;;;;;;;1.30;1.07;;;11.20;99.90;;;;;;4957960;29;20979;-82
2024/02/17 00:37:08;;;;;;;1.50;1.03;;;11.10;99.90;;;;;;4957952;29;20462;-82
2024/02/17 00:39:36;;;;;;;2.97;1.10;;;11.10;99.90;;;;;;4957791;29;20470;-82
2024/02/17 00:42:03;;;;;;;1.60;1.03;;;11.10;99.90;;;;;;4957827;29;20912;-83
2024/02/17 00:44:30;;;;;;;1.90;1.37;;;11.10;99.90;;;;;;4958480;28;20434;-83
2024/02/17 00:46:57;;;;;;;3.80;1.63;;;11.10;99.90;;;;;;4960902;29;20482;-83
2024/02/17 00:49:23;;;;;;;1.10;0.90;;;11.20;99.90;;;;;;4960821;29;20462;-83
2024/02/17 00:51:50;;;;;;;2.13;1.90;;;11.10;99.90;;;;;;4960576;29;20484;-83
2024/02/17 00:54:17;;;;;;;1.43;1.33;;;11.20;99.90;;;;;;4960663;29;20450;-83
2024/02/17 00:56:45;;;;;;;3.27;0.93;;;11.10;99.90;;;;;;4960867;29;20442;-83
2024/02/17 00:59:12;;;;;;;1.33;1.00;;;11.10;99.90;;;;;;4960548;29;20450;-83
2024/02/17 01:01:38;;;;;;;1.80;1.03;;;11.10;99.90;;;;;;4960367;29;20951;-83
2024/02/17 01:04:05;;;;;;;0.80;0.80;;;11.10;99.90;;;;;;4960642;29;20457;-83
2024/02/17 01:06:32;;;;;;;1.30;0.70;;;11.10;99.90;;;;;;4960884;29;20450;-83
2024/02/17 01:08:58;;;;;;;1.97;0.90;;;11.10;99.90;;;;;;4960506;29;20458;-83
2024/02/17 01:11:25;;;;;;;0.80;0.70;;;11.10;99.90;;;;;;4960082;29;20501;-83
2024/02/17 01:13:53;;;;;;;1.00;0.80;;;11.10;99.90;;;;;;4961098;29;20449;-83
2024/02/17 01:16:20;;;;;;;0.87;0.83;;;11.00;99.90;;;;;;4960483;29;20449;-83
2024/02/17 01:18:47;;;;;;;2.10;1.63;;;11.00;99.90;;;;;;4960285;29;20450;-83
2024/02/17 01:21:13;;;;;;;2.07;0.77;;;11.00;99.90;;;;;;4960370;29;20525;-83
2024/02/17 01:23:40;;;;;;;1.13;0.93;;;11.00;99.90;;;;;;4960381;29;20431;-83
2024/02/17 01:26:07;;;;;;;1.20;1.00;;;11.00;99.90;;;;;;4960696;29;20450;-83
2024/02/17 01:28:33;;;;;;;2.60;1.13;;;11.00;99.90;;;;;;4960559;29;20457;-83
2024/02/17 01:31:02;;;;;;;3.67;1.00;;;11.00;99.90;;;;;;4960081;29;20489;-83
2024/02/17 01:33:28;;;;;;;1.40;1.10;;;11.00;99.90;;;;;;4959775;28;20454;-83
2024/02/17 01:35:55;;;;;;;1.47;0.70;;;10.90;99.90;;;;;;4960267;29;20457;-83
2024/02/17 01:38:22;;;;;;;1.00;0.90;;;11.00;99.90;;;;;;4959832;29;20454;-83
2024/02/17 01:40:49;;;;;;;0.70;0.60;;;10.90;99.90;;;;;;4959593;29;20467;-83
2024/02/17 01:43:16;;;;;;;0.80;0.77;;;10.90;99.90;;;;;;4959533;29;20438;-83
2024/02/17 01:45:43;;;;;;;1.87;0.80;;;10.90;99.90;;;;;;4966446;29;20457;-83
2024/02/17 01:48:11;;;;;;;1.10;1.03;;;10.90;99.90;;;;;;4958692;29;20446;-83
2024/02/17 01:50:38;;;;;;;1.40;0.70;;;10.90;99.90;;;;;;4958162;29;20854;-83
2024/02/17 01:53:05;;;;;;;0.87;0.70;;;10.90;99.90;;;;;;4958655;29;20449;-83
2024/02/17 01:55:33;;;;;;;1.23;0.90;;;10.90;99.90;;;;;;4957496;28;20446;-83
2024/02/17 01:58:00;;;;;;;1.27;1.07;;;10.90;99.90;;;;;;4958336;28;20821;-83
2024/02/17 02:00:28;;;;;;;1.00;0.90;;;10.90;99.90;;;;;;4958184;29;20467;-83
2024/02/17 02:02:55;;;;;;;1.20;1.00;;;10.90;99.90;;;;;;4958169;29;20493;-83
2024/02/17 02:05:24;;;;;;;0.70;0.70;;;10.90;99.90;;;;;;4957767;29;20450;-83
2024/02/17 02:07:50;;;;;;;0.90;0.87;;;10.90;99.90;;;;;;4957508;28;20959;-83
2024/02/17 02:10:17;;;;;;;0.97;0.63;;;10.90;99.90;;;;;;4957193;29;20497;-83
2024/02/17 02:12:45;;;;;;;0.80;0.80;;;10.90;99.90;;;;;;4957595;29;20490;-83
2024/02/17 02:15:12;;;;;;;1.57;0.50;;;10.90;99.90;;;;;;4957696;29;20454;-83
2024/02/17 02:17:39;;;;;;;0.77;0.77;;;10.90;99.90;;;;;;4957674;29;20983;-83
2024/02/17 02:20:07;;;;;;;1.70;0.90;;;11.00;99.90;;;;;;4957337;29;20999;-83
2024/02/17 02:22:38;;;;;;;0.80;0.60;;;10.90;99.90;;;;;;4957824;28;20442;-83
2024/02/17 02:25:07;;;;;;;1.53;0.87;;;10.90;99.90;;;;;;4957238;29;20935;-83
2024/02/17 02:27:40;;;;;;;1.27;1.20;;;10.90;99.90;;;;;;4957809;28;20951;-83
2024/02/17 02:30:09;;;;;;;1.90;1.30;;;10.90;99.90;;;;;;4957598;29;20525;-83
2024/02/17 02:32:36;;;;;;;1.73;0.80;;;10.90;99.90;;;;;;4957089;28;20563;-83
2024/02/17 02:35:02;;;;;;;1.63;1.10;;;10.90;99.90;;;;;;4957356;29;20450;-83
2024/02/17 02:37:30;;;;;;;1.47;0.70;;;10.90;99.90;;;;;;4957776;29;20453;-83
2024/02/17 02:39:57;;;;;;;1.03;0.90;;;10.90;99.90;;;;;;4958164;29;20477;-83
2024/02/17 02:42:23;;;;;;;1.17;1.00;;;10.90;99.90;;;;;;4958428;29;20442;-83
2024/02/17 02:44:52;;;;;;;1.67;1.57;;;10.90;99.90;;;;;;4957512;29;20451;-83
2024/02/17 02:47:18;;;;;;;2.53;1.13;;;10.90;99.90;;;;;;4957387;29;20446;-83
2024/02/17 02:49:45;;;;;;;1.23;0.90;;;10.90;99.90;;;;;;4957489;29;20473;-83
2024/02/17 02:52:12;;;;;;;0.93;0.93;;;10.80;99.90;;;;;;4957603;29;20493;-83
2024/02/17 02:54:39;;;;;;;4.00;1.43;;;10.80;99.90;;;;;;4957253;29;20454;-83
2024/02/17 02:57:06;;;;;;;3.13;1.10;;;10.70;99.90;;;;;;4957414;29;20443;-83
2024/02/17 02:59:33;;;;;;;0.97;0.97;;;10.60;99.90;;;;;;4957435;28;20473;-83
2024/02/17 03:02:01;;;;;;;1.57;0.93;;;10.50;99.90;;;;;;4957332;29;20446;-83
2024/02/17 03:04:28;;;;;;;1.90;1.53;;;10.50;99.90;;;;;;4957046;29;20826;-83
2024/02/17 03:06:54;;;;;;;3.13;1.63;;;10.40;99.90;;;;;;4956564;28;20453;-83
2024/02/17 03:09:21;;;;;;;1.47;1.17;;;10.40;99.90;;;;;;4957405;29;20490;-83
2024/02/17 03:11:48;;;;;;;2.73;2.07;;;10.40;99.90;;;;;;4957306;29;20505;-83
2024/02/17 03:14:16;;;;;;;2.43;1.17;;;10.40;99.90;;;;;;4957568;29;20821;-83
2024/02/17 03:16:42;;;;;;;2.87;1.53;;;10.30;99.90;;;;;;4957730;28;20446;-83
2024/02/17 03:19:11;;;;;;;2.10;1.40;;;10.30;99.90;;;;;;4956446;29;20943;-83
2024/02/17 03:21:39;;;;;;;4.80;1.17;;;10.30;99.90;;;;;;4956935;29;20446;-83
2024/02/17 03:24:06;;;;;;;4.27;1.50;;;10.30;99.90;;;;;;4957038;29;20462;-83
2024/02/17 03:26:33;;;;;;;4.27;1.60;;;10.30;99.90;;;;;;4956936;29;20450;-83
2024/02/17 03:28:59;;;;;;;5.23;2.03;;;10.20;99.90;;;;;;4957122;29;20450;-83
2024/02/17 03:31:26;;;;;;;1.40;1.00;;;10.30;99.90;;;;;;4956865;29;20816;-83
2024/02/17 03:33:54;;;;;;;2.70;1.97;;;10.20;99.90;;;;;;4956860;29;20458;-83
2024/02/17 03:36:22;;;;;;;2.00;1.40;;;10.20;99.90;;;;;;4957061;29;20450;-83
2024/02/17 03:38:49;;;;;;;1.70;1.60;;;10.20;99.90;;;;;;4956797;29;20447;-83
2024/02/17 03:41:16;;;;;;;2.27;1.20;;;10.10;99.90;;;;;;4956914;29;20984;-83
2024/02/17 03:43:43;;;;;;;3.80;2.10;;;10.10;99.90;;;;;;4957022;29;20458;-83
2024/02/17 03:46:09;;;;;;;5.43;1.90;;;10.10;99.90;;;;;;4956527;29;20458;-83
2024/02/17 03:48:37;;;;;;;3.90;2.00;;;10.10;99.90;;;;;;4957019;29;20434;-83
2024/02/17 03:51:04;;;;;;;3.70;1.10;;;10.10;99.90;;;;;;4956832;29;20473;-83
2024/02/17 03:53:32;;;;;;;2.93;2.47;;;10.10;99.90;;;;;;4956610;29;20482;-83
2024/02/17 03:55:59;;;;;;;7.80;2.77;;;10.10;99.90;;;;;;4956642;29;20944;-83
2024/02/17 03:58:26;;;;;;;3.53;1.10;;;10.00;99.90;;;;;;4957157;28;20454;-83
2024/02/17 04:00:53;;;;;;;5.17;1.80;;;10.00;99.90;;;;;;4966369;29;20453;-82
2024/02/17 04:03:19;;;;;;;7.03;2.40;;;10.00;99.90;;;;;;4956927;28;20450;-83
2024/02/17 04:05:46;;;;;;;5.43;2.23;;;10.00;99.90;;;;;;4955456;29;20438;-83
2024/02/17 04:08:13;;;;;;;4.57;1.60;;;10.00;99.90;;;;;;4955482;29;20449;-83
2024/02/17 04:10:41;;;;;;;3.00;1.43;;;10.00;99.90;;;;;;4955242;29;20478;-83
2024/02/17 04:13:08;;;;;;;4.77;2.20;;;10.00;99.90;;;;;;4956099;29;20486;-83
2024/02/17 04:15:38;;;;;;;2.73;1.57;;;10.00;99.90;;;;;;4955753;28;20462;-83
2024/02/17 04:18:06;;;;;;;4.20;1.97;;;10.00;99.90;;;;;;4956339;28;20459;-83
2024/02/17 04:20:33;;;;;;;6.50;3.03;;;10.00;99.90;;;;;;4959873;29;20569;-83
2024/02/17 04:23:00;;;;;;;3.20;1.80;;;10.00;99.90;;;;;;4960804;29;20477;-83
2024/02/17 04:25:26;;;;;;;3.00;1.70;;;9.90;99.90;;;;;;4959949;29;20512;-83
2024/02/17 04:27:55;;;;;;;2.43;2.07;;;9.90;99.90;;;;;;4959844;29;20934;-83
2024/02/17 04:30:21;;;;;;;3.00;1.37;;;10.00;99.90;;;;;;4960134;29;20470;-83
2024/02/17 04:32:48;;;;;;;2.60;1.20;;;9.90;99.90;;;;;;4959763;29;20489;-82
2024/02/17 04:35:15;;;;;;;2.30;1.23;;;9.90;99.90;;;;;;4959987;29;20441;-83
2024/02/17 04:37:41;;;;;;;5.57;2.00;;;9.90;99.90;;;;;;4959995;29;20763;-82
2024/02/17 04:40:10;;;;;;;4.83;2.60;;;9.90;99.90;;;;;;4959433;29;20470;-83
2024/02/17 04:42:36;;;;;;;2.33;1.37;;;9.90;99.90;;;;;;4959437;28;20936;-83
2024/02/17 04:45:05;;;;;;;3.10;1.30;;;9.80;99.90;;;;;;4959357;29;20450;-83
2024/02/17 04:47:32;;;;;;;2.80;1.60;;;9.90;99.90;;;;;;4959541;29;20446;-83
2024/02/17 04:49:59;;;;;;;5.50;1.43;;;9.90;99.90;;;;;;4959332;29;20477;-83
2024/02/17 04:52:25;;;;;;;2.10;1.20;;;9.90;99.90;;;;;;4958829;29;20497;-83
2024/02/17 04:54:52;;;;;;;3.70;1.40;;;9.90;99.90;;;;;;4969354;29;20454;-83
2024/02/17 04:57:19;;;;;;;4.20;1.87;;;9.90;99.90;;;;;;4971656;29;20438;-83
2024/02/17 04:59:46;;;;;;;5.03;1.63;;;9.80;99.90;;;;;;4968066;29;20477;-83
2024/02/17 05:02:14;;;;;;;3.00;1.93;;;9.80;99.90;;;;;;4972577;29;20450;-83
2024/02/17 05:04:40;;;;;;;1.73;0.90;;;9.80;99.90;;;;;;4971622;29;20442;-83
2024/02/17 05:07:08;;;;;;;2.80;1.00;;;9.80;99.90;;;;;;4968798;29;20454;-83
2024/02/17 05:09:34;;;;;;;3.20;1.50;;;9.80;99.90;;;;;;4966070;29;20478;-83
2024/02/17 05:12:01;;;;;;;3.33;1.67;;;9.80;99.90;;;;;;4965222;29;20864;-83
2024/02/17 05:14:28;;;;;;;4.73;1.67;;;9.80;99.90;;;;;;4976201;29;20422;-83
2024/02/17 05:16:54;;;;;;;1.13;1.03;;;9.80;99.90;;;;;;4965149;29;20454;-83
2024/02/17 05:19:22;;;;;;;7.27;2.37;;;9.80;99.90;;;;;;4963928;29;20835;-83
2024/02/17 05:21:49;;;;;;;3.10;1.43;;;9.80;99.90;;;;;;4963993;29;20454;-83
2024/02/17 05:24:16;;;;;;;2.73;1.30;;;9.80;99.90;;;;;;4963775;29;20458;-83
2024/02/17 05:26:43;;;;;;;3.10;1.70;;;9.80;99.90;;;;;;4959682;29;20454;-83
2024/02/17 05:29:10;;;;;;;3.77;1.60;;;9.90;99.90;;;;;;4958779;29;20962;-82
2024/02/17 05:31:36;;;;;;;5.10;2.33;;;9.80;99.90;;;;;;4958293;28;20461;-82
2024/02/17 05:34:03;;;;;;;3.40;1.67;;;9.90;99.90;;;;;;4958943;29;20497;-83
2024/02/17 05:36:31;;;;;;;2.33;1.57;;;9.80;99.90;;;;;;4959028;29;20524;-83
2024/02/17 05:38:58;;;;;;;4.20;2.00;;;9.80;99.90;;;;;;4961409;29;20454;-83
2024/02/17 05:41:25;;;;;;;3.63;1.60;;;9.80;99.90;;;;;;4962338;29;20450;-83
2024/02/17 05:43:53;;;;;;;4.03;1.90;;;9.80;99.90;;;;;;4962359;28;20438;-83
2024/02/17 05:46:21;;;;;;;3.07;1.53;;;9.80;99.90;;;;;;4961256;29;20474;-83
2024/02/17 05:48:48;;;;;;;3.70;1.57;;;9.80;99.90;;;;;;4962116;28;20450;-83
2024/02/17 05:51:15;;;;;;;4.20;2.43;;;9.80;99.90;;;;;;4961896;29;20470;-82
2024/02/17 05:53:43;;;;;;;2.00;1.83;;;9.80;99.90;;;;;;4961140;29;20485;-82
2024/02/17 05:56:10;;;;;;;2.97;1.83;;;9.80;99.90;;;;;;4961532;29;20453;-83
2024/02/17 05:58:37;;;;;;;5.80;2.20;;;9.80;99.90;;;;;;4960953;29;20439;-83
2024/02/17 06:01:04;;;;;;;4.90;2.10;;;9.80;99.90;;;;;;4960947;29;20458;-83
2024/02/17 06:03:32;;;;;;;2.03;1.70;;;9.80;99.90;;;;;;4961422;29;20450;-83
2024/02/17 06:05:59;;;;;;;4.93;1.97;;;9.80;99.90;;;;;;4961450;28;20505;-83
2024/02/17 06:08:26;;;;;;;2.23;1.60;;;9.80;99.90;;;;;;4960878;29;20451;-83
2024/02/17 06:10:54;;;;;;;6.17;2.17;;;9.80;99.90;;;;;;4960013;28;20490;-83
2024/02/17 06:13:21;;;;;;;6.13;2.03;;;9.80;99.90;;;;;;4966078;29;20482;-83
2024/02/17 06:15:49;;;;;;;6.93;2.67;;;9.80;99.90;;;;;;4957872;29;20486;-82
2024/02/17 06:23:42;;;;;;;5.57;2.20;;;9.80;99.90;;;;;;4955184;28;20438;-82
2024/02/17 06:26:21;;;;;;;8.17;2.90;;;9.80;99.90;;;;;;4957331;29;20454;-82
2024/02/17 06:28:47;;;;;;;6.47;2.70;;;9.80;99.90;;;;;;4957506;29;20427;-83
2024/02/17 06:31:14;;;;;;;10.37;2.80;;;9.80;99.90;;;;;;4957230;29;20541;-82
2024/02/17 06:33:41;;;;;;;8.03;3.73;;;9.80;99.90;;;;;;4957069;29;20482;-82
2024/02/17 06:36:08;;;;;;;4.23;2.23;;;9.80;99.90;;;;;;4957410;29;20497;-82
2024/02/17 06:38:35;;;;;;;5.03;2.20;;;9.80;99.90;;;;;;4957785;29;20930;-82
2024/02/17 06:41:02;;;;;;;5.97;3.10;;;9.80;99.90;;;;;;4957178;28;20470;-82
2024/02/17 06:43:30;;;;;;;4.43;2.13;;;9.70;99.90;;;;;;4957796;29;20482;-82
2024/02/17 06:45:58;;;;;;;4.97;2.13;;;9.70;99.90;;;;;;4957246;29;20450;-82
2024/02/17 06:48:25;;;;;;;3.37;2.50;;;9.60;99.90;;;;;;4956984;29;20967;-82
2024/02/17 06:50:52;;;;;;;3.60;2.83;;;9.60;99.90;;;;;;4956899;28;20470;-82
2024/02/17 06:53:18;;;;;;;6.17;2.90;;;9.60;99.90;;;;;;4957055;29;20486;-82
2024/02/17 06:55:45;;;;;;;7.20;2.87;;;9.50;99.90;;;;;;4956613;29;20450;-82
2024/02/17 06:58:12;;;;;;;5.37;2.77;;;9.40;99.90;;;;;;4956891;29;20457;-82
2024/02/17 07:00:40;;;;;;;6.50;2.63;;;9.40;99.90;;;;;;4956964;29;20517;-83
2024/02/17 07:03:07;;;;;;;6.30;3.00;;;9.30;99.90;;;;;;4957040;29;21011;-82
2024/02/17 07:05:34;;;;;;;7.03;2.20;;;9.50;99.90;;;;;;4957155;29;20453;-83
2024/02/17 07:08:02;;;;;;;8.93;2.87;;;9.20;99.90;;;;;;4957000;28;20439;-83
2024/02/17 07:10:29;;;;;;;9.47;4.17;;;9.10;99.90;;;;;;4956651;29;20492;-83
2024/02/17 07:12:56;;;;;;;7.70;2.70;;;9.10;99.90;;;;;;4957046;28;20466;-83
2024/02/17 07:15:23;;;;;;;6.13;2.73;;;9.00;99.90;;;;;;4962263;29;20450;-83
2024/02/17 07:17:51;;;;;;;4.33;1.93;;;9.10;99.90;;;;;;4961405;29;20478;-83
2024/02/17 07:20:17;;;;;;;5.87;2.17;;;9.00;99.90;;;;;;4957928;29;20818;-83
2024/02/17 07:22:45;;;;;;;7.37;2.70;;;8.90;99.90;;;;;;4958417;29;20449;-82
2024/02/17 07:25:12;;;;;;;2.90;2.33;;;8.90;99.90;;;;;;4957749;28;20486;-83
2024/02/17 07:27:40;;;;;;;4.40;2.27;;;8.80;99.90;;;;;;4956978;29;20458;-83
2024/02/17 07:30:07;;;;;;;3.30;2.07;;;8.80;99.90;;;;;;4957185;28;20465;-85
2024/02/17 07:32:34;;;;;;;6.07;3.00;;;8.80;99.90;;;;;;4956629;28;20438;-83
2024/02/17 07:35:03;;;;;;;7.00;2.27;;;8.90;99.90;;;;;;4958706;29;20450;-83
2024/02/17 07:37:30;;;;;;;6.33;2.73;;;9.00;99.90;;;;;;4956679;28;20458;-83
2024/02/17 07:39:57;;;;;;;5.83;3.20;;;9.20;99.90;;;;;;4958046;29;20474;-82
2024/02/17 07:42:24;;;;;;;7.43;2.10;;;9.20;99.90;;;;;;4958273;29;20971;-82
2024/02/17 07:44:51;;;;;;;5.53;3.03;;;9.30;99.90;;;;;;4958091;29;20438;-82
2024/02/17 07:47:18;;;;;;;8.23;3.63;;;9.30;99.90;;;;;;4956640;29;20457;-82
2024/02/17 07:49:44;;;;;;;13.03;3.07;;;9.40;99.90;;;;;;4967605;29;20577;-82
2024/02/17 07:52:13;;;;;;;5.40;3.07;;;9.40;99.90;;;;;;4972569;29;20457;-82
2024/02/17 07:54:39;;;;;;;3.90;2.87;;;9.40;99.90;;;;;;4971959;28;20983;-82
2024/02/17 07:57:07;;;;;;;13.13;3.93;;;9.40;99.90;;;;;;4974899;29;20451;-82
2024/02/17 07:59:34;;;;;;;5.70;2.60;;;9.60;99.90;;;;;;4970619;29;20553;-82
2024/02/17 08:02:01;;;;;;;8.13;2.33;;;9.70;99.90;;;;;;4975002;29;20474;-82
2024/02/17 08:04:27;;;;;;;12.20;3.63;;;9.80;99.90;;;;;;4974281;29;20498;-82
2024/02/17 08:06:54;;;;;;;6.20;2.97;;;10.00;99.90;;;;;;4965606;29;20446;-83
2024/02/17 08:09:22;;;;;;;9.70;3.63;;;10.10;99.90;;;;;;4963061;29;20478;-82
2024/02/17 08:11:50;;;;;;;4.67;2.30;;;10.10;99.90;;;;;;4964927;29;20486;-82
2024/02/17 08:14:17;;;;;;;5.53;2.83;;;10.20;99.90;;;;;;4963493;29;21037;-82
2024/02/17 08:16:44;;;;;;;9.20;4.40;;;10.30;99.90;;;;;;4964033;29;20442;-82
2024/02/17 08:19:10;;;;;;;9.57;3.70;;;10.50;99.90;;;;;;4964537;29;20461;-82
2024/02/17 08:21:37;;;;;;;6.40;2.90;;;10.70;99.90;;;;;;4965231;29;20451;-82
2024/02/17 08:24:04;;;;;;;6.83;3.00;;;10.80;99.90;;;;;;4974792;28;20454;-81
2024/02/17 08:26:33;;;;;;;6.33;2.30;;;10.90;99.90;;;;;;4962548;29;20454;-82
2024/02/17 08:29:00;;;;;;;7.83;3.77;;;11.00;99.90;;;;;;4958510;29;20970;-82
2024/02/17 08:31:28;;;;;;;5.90;3.53;;;11.10;99.90;;;;;;4956822;29;20442;-82
2024/02/17 08:33:55;;;;;;;5.83;2.90;;;11.20;99.90;;;;;;4956872;29;20497;-82
2024/02/17 08:36:21;;;;;;;6.13;3.27;;;11.20;99.90;;;;;;4957124;28;20455;-82
2024/02/17 08:38:48;;;;;;;4.20;1.90;;;11.10;99.90;;;;;;4960035;29;20534;-83
2024/02/17 08:41:19;;;;;;;5.33;3.07;;;11.10;99.90;;;;;;4958715;29;20474;-82
2024/02/17 08:43:48;;;;;;;4.77;2.53;;;11.10;99.90;;;;;;4958723;29;20474;-83
2024/02/17 08:46:14;;;;;;;6.50;2.73;;;11.30;99.90;;;;;;4958558;29;20454;-82
2024/02/17 08:48:41;;;;;;;5.60;2.83;;;11.50;99.90;;;;;;4958748;29;20450;-82
2024/02/17 08:51:08;;;;;;;4.67;2.37;;;11.70;99.90;;;;;;4958980;29;20477;-82
2024/02/17 08:53:34;;;;;;;3.20;2.73;;;11.70;99.90;;;;;;4959259;29;20886;-82
2024/02/17 08:56:01;;;;;;;8.60;3.00;;;11.70;99.90;;;;;;4958754;29;20446;-82
2024/02/17 08:58:28;;;;;;;4.37;2.40;;;11.60;99.90;;;;;;4959348;28;20955;-82
2024/02/17 09:00:57;;;;;;;6.57;2.47;;;11.50;99.90;;;;;;4958969;29;20470;-82
2024/02/17 09:03:24;;;;;;;7.03;2.60;;;11.50;99.90;;;;;;4960327;29;20510;-82
2024/02/17 09:05:51;;;;;;;2.83;2.10;;;11.60;99.90;;;;;;4961586;28;20454;-82
2024/02/17 09:08:18;;;;;;;5.13;2.67;;;11.70;99.90;;;;;;4962019;29;20948;-82
2024/02/17 09:10:44;;;;;;;9.70;3.63;;;11.80;99.90;;;;;;4961501;29;20486;-82
2024/02/17 09:13:11;;;;;;;6.43;2.50;;;11.80;99.90;;;;;;4962458;28;20450;-83
2024/02/17 09:15:38;;;;;;;4.43;2.30;;;12.00;99.90;;;;;;4962609;28;20512;-82
2024/02/17 09:18:07;;;;;;;8.17;3.40;;;12.60;99.90;;;;;;4961636;29;20450;-82
2024/02/17 09:20:33;;;;;;;7.33;3.93;;;13.60;99.90;;;;;;4961754;29;20987;-82
2024/02/17 09:23:00;;;;;;;4.30;3.10;;;14.70;99.90;;;;;;4961273;29;20441;-82
2024/02/17 09:25:27;;;;;;;11.10;2.77;;;15.60;99.90;;;;;;4961851;29;20800;-82
2024/02/17 09:27:53;;;;;;;6.40;2.63;;;15.80;99.90;;;;;;4961188;29;20438;-82
2024/02/17 09:30:20;;;;;;;3.87;2.20;;;15.60;99.90;;;;;;4961209;29;20457;-82
2024/02/17 09:32:47;;;;;;;6.13;2.93;;;15.40;99.90;;;;;;4961339;29;20446;-82
2024/02/17 09:35:15;;;;;;;5.40;2.50;;;15.30;99.90;;;;;;4961216;29;20856;-82
2024/02/17 09:37:44;;;;;;;5.97;2.70;;;16.50;99.90;;;;;;4960931;29;20442;-82
2024/02/17 09:40:11;;;;;;;6.20;2.40;;;17.60;99.90;;;;;;4961648;29;20489;-82
2024/02/17 09:42:38;;;;;;;4.47;2.33;;;18.10;99.90;;;;;;4961267;29;20501;-81
2024/02/17 09:45:06;;;;;;;3.00;2.00;;;19.20;99.90;;;;;;4960769;29;20450;-81
2024/02/17 09:47:34;;;;;;;3.07;2.10;;;20.40;99.90;;;;;;4961014;29;20437;-81
2024/02/17 09:50:03;;;;;;;3.50;2.20;;;21.40;99.90;;;;;;4960242;29;20473;-81
2024/02/17 09:52:31;;;;;;;6.97;2.50;;;22.30;99.90;;;;;;4960734;29;20457;-81
2024/02/17 09:54:59;;;;;;;4.27;3.07;;;23.00;99.90;;;;;;4960006;29;20477;-82
2024/02/17 09:57:25;;;;;;;4.10;2.67;;;23.40;99.90;;;;;;4960300;29;20457;-81
2024/02/17 09:59:52;;;;;;;3.87;2.30;;;23.40;99.90;;;;;;4960329;29;20838;-81
2024/02/17 10:02:19;;;;;;;5.60;3.00;;;23.60;99.90;;;;;;4960253;29;20217;-81
2024/02/17 10:04:56;;;;;;;3.23;1.97;;;23.80;99.90;;;;;;4960551;29;20265;-81
2024/02/17 10:07:23;;;;;;;6.40;2.47;;;24.00;99.90;;;;;;4961094;29;20624;-82
2024/02/17 10:09:51;;;;;;;4.70;2.57;;;24.20;99.90;;;;;;4960646;29;20253;-81
2024/02/17 10:12:18;;;;;;;3.63;2.70;;;24.20;99.90;;;;;;4960263;29;20252;-81
2024/02/17 10:14:45;;;;;;;4.97;2.17;;;23.80;99.90;;;;;;4959875;29;20269;-82
2024/02/17 10:17:13;;;;;;;4.20;2.67;;;23.30;99.90;;;;;;4964312;28;20197;-81
2024/02/17 10:19:41;;;;;;;3.20;2.40;;;22.70;99.90;;;;;;4961704;29;20842;-82
2024/02/17 10:22:08;;;;;;;2.60;1.97;;;22.40;99.90;;;;;;4961836;28;20206;-82
2024/02/17 10:24:35;;;;;;;3.77;2.20;;;22.30;99.90;;;;;;4961589;29;20986;-83
2024/02/17 10:27:03;;;;;;;5.40;1.90;;;22.60;99.90;;;;;;4961107;29;20457;-83
2024/02/17 10:29:30;;;;;;;3.53;2.30;;;23.20;99.90;;;;;;4961085;29;20994;-83
2024/02/17 10:31:58;;;;;;;4.27;2.30;;;23.90;99.50;;;;;;4960757;29;20449;-83
2024/02/17 10:34:25;;;;;;;2.40;2.20;;;24.30;98.80;;;;;;4964540;29;20461;-82
2024/02/17 10:36:52;;;;;;;4.33;2.30;;;24.80;98.20;;;;;;4959374;29;20811;-85
2024/02/17 10:39:21;;;;;;;4.43;1.80;;;25.10;96.50;;;;;;4957434;29;21018;-84
2024/02/17 10:41:48;;;;;;;3.20;1.90;;;25.40;95.60;;;;;;4957838;28;20264;-85
2024/02/17 10:44:16;;;;;;;1.75;1.65;;;25.30;92.70;;;;;;4959227;29;20654;-85
2024/02/17 10:46:47;;;;;;;1.92;1.48;;;25.40;92.80;;;;;;4960685;28;20206;-85
2024/02/17 10:49:26;;;;;;;1.98;1.48;;;25.40;92.70;;;;;;4962869;29;20244;-85
2024/02/17 10:51:58;;;;;;;2.05;1.17;;;24.90;92.20;;;;;;4961750;29;20194;-85
2024/02/17 10:54:32;;;;;;;1.23;1.13;;;23.50;92.90;;;;;;4963065;29;20684;-85
2024/02/17 10:57:03;;;;;;;2.17;1.10;;;22.40;93.40;;;;;;4966184;29;20602;-85
2024/02/17 10:59:33;;;;;;;0.70;0.70;;;21.60;94.10;;;;;;4963501;28;20480;-83
2024/02/17 11:02:01;;;;;;;1.00;1.00;;;20.90;95.30;;;;;;4962817;29;20426;-83
2024/02/17 11:04:29;;;;;;;1.40;1.10;;;20.10;95.10;;;;;;4965131;29;20446;-84
2024/02/17 11:06:56;;;;;;;1.23;1.20;;;19.30;96.50;;;;;;4971580;29;20446;-84
2024/02/17 11:09:23;;;;;;;1.30;1.00;;;18.50;97.80;;;;;;4978301;28;20478;-83
2024/02/17 11:11:50;;;;;;;0.80;0.80;;;17.90;99.10;;;;;;4978720;29;20486;-83
2024/02/17 11:14:41;;;;;;;0.80;0.77;;;17.60;99.80;;;;;;4979084;29;20541;-82
2024/02/17 11:17:09;;;;;;;2.57;1.03;;;17.40;98.40;;;;;;4979539;29;20443;-83
2024/02/17 11:19:36;;;;;;;1.20;1.07;;;17.20;99.30;;;;;;4965928;28;20471;-83
2024/02/17 11:22:06;;;;;;;0.80;0.70;;;17.00;99.90;;;;;;4959592;29;20450;-83
2024/02/17 11:24:35;;;;;;;1.77;1.17;;;16.80;99.90;;;;;;4960745;29;20530;-84
2024/02/17 11:27:04;;;;;;;1.40;0.90;;;16.70;99.90;;;;;;4960689;29;20486;-84
2024/02/17 11:29:33;;;;;;;1.27;1.00;;;16.70;99.90;;;;;;4959182;28;20466;-84
2024/02/17 11:32:02;;;;;;;1.73;1.13;;;16.70;99.90;;;;;;4959315;29;20447;-83
2024/02/17 11:34:29;;;;;;;0.97;0.70;;;16.70;99.90;;;;;;4958634;29;20493;-83
2024/02/17 11:36:57;;;;;;;1.13;0.83;;;16.50;99.90;;;;;;4958827;29;20959;-83
2024/02/17 11:39:25;;;;;;;1.20;1.10;;;16.30;99.90;;;;;;4958798;29;20479;-83
2024/02/17 11:41:53;;;;;;;1.37;1.00;;;16.10;99.90;;;;;;4959399;29;20449;-84
2024/02/17 11:44:19;;;;;;;1.80;1.33;;;16.00;99.90;;;;;;4959312;29;20446;-84
2024/02/17 11:46:47;;;;;;;1.90;0.90;;;16.00;99.90;;;;;;4960079;29;20454;-83
2024/02/17 11:49:15;;;;;;;1.20;1.03;;;16.10;99.90;;;;;;4959611;29;20459;-83
2024/02/17 11:51:43;;;;;;;3.50;1.60;;;16.10;99.90;;;;;;4960451;29;20461;-82
2024/02/17 11:54:11;;;;;;;4.30;1.60;;;16.00;99.90;;;;;;4960078;29;21011;-82
2024/02/17 11:56:42;;;;;;;2.20;1.27;;;16.00;99.90;;;;;;4960316;29;20446;-82
2024/02/17 11:59:10;;;;;;;0.80;0.80;;;16.10;99.90;;;;;;4961081;29;20442;-82
2024/02/17 12:01:36;;;;;;;0.90;0.90;;;16.30;99.90;;;;;;4961375;29;20493;-82
2024/02/17 12:04:04;;;;;;;0.70;0.70;;;16.30;99.90;;;;;;4963958;29;20459;-82
2024/02/17 12:06:32;;;;;;;7.97;1.07;;;16.30;99.90;;;;;;4961724;28;20872;-83
2024/02/17 12:08:59;;;;;;;1.23;1.13;;;16.10;99.90;;;;;;4963043;29;20461;-82
2024/02/17 12:11:27;;;;;;;0.60;0.60;;;16.00;99.90;;;;;;4960817;29;20470;-82
2024/02/17 12:13:54;;;;;;;1.73;1.07;;;15.90;99.90;;;;;;4961566;29;20470;-83
2024/02/17 12:16:22;;;;;;;1.10;0.90;;;15.90;99.90;;;;;;4962823;29;20792;-84
2024/02/17 12:18:50;;;;;;;1.10;0.80;;;15.90;99.90;;;;;;4963759;29;20446;-84
2024/02/17 12:21:18;;;;;;;1.23;0.90;;;15.90;99.90;;;;;;4962240;29;20502;-86
2024/02/17 12:23:47;;;;;;;0.70;0.70;;;15.90;99.90;;;;;;4957322;29;20963;-85
2024/02/17 12:26:15;;;;;;;1.20;0.67;;;15.80;99.90;;;;;;4957876;28;20478;-85
2024/02/17 12:28:42;;;;;;;1.17;0.90;;;15.70;99.90;;;;;;4957118;29;20932;-85
2024/02/17 12:31:10;;;;;;;1.20;1.10;;;15.60;99.90;;;;;;4956892;29;20473;-85
2024/02/17 12:33:46;;;;;;;4.10;0.93;;;15.50;99.90;;;;;;4958452;29;20450;-85
2024/02/17 12:36:16;;;;;;;3.00;0.97;;;15.30;99.90;;;;;;4956922;29;20540;-85
2024/02/17 12:38:46;;;;;;;0.60;0.60;;;15.10;99.90;;;;;;4957569;29;20454;-85
2024/02/17 12:41:15;;;;;;;1.23;0.60;;;14.90;99.90;;;;;;4961430;29;20818;-85
2024/02/17 12:43:42;;;;;;;0.60;0.50;;;14.60;99.90;;;;;;4961090;29;20446;-85
2024/02/17 12:46:20;;;;;;;0.60;0.60;;;14.40;99.90;;;;;;4963573;29;20928;-85
2024/02/17 12:48:49;;;;;;;1.70;1.10;;;14.20;99.90;;;;;;4979331;28;20441;-86
2024/02/17 12:51:20;;;;;;;1.20;1.10;;;14.10;99.90;;;;;;4959234;28;20513;-85
2024/02/17 12:53:48;;;;;;;6.00;0.70;;;14.00;99.90;;;;;;4959614;28;20431;-85
2024/02/17 12:56:15;;;;;;;1.13;0.77;;;13.80;99.90;;;;;;4959629;29;20478;-85